Main page
METAR-TAF:

METAR-TAF

Airports :

Wattisham Flying Station

Wattisham, England

latitude: 52-07N, longitude: 000-58E, elevation: 87 m

Current weather observation

The report was made 1 hour and 10 minutes ago, at 18:50 UTC
Wind 6 kt from the East/Southeast
Temperature 17°C
Humidity 59%
Pressure 1025 hPa
Visibility 10 km or more

METAR: EGUW 231850Z AUTO 12006KT 9999 FEW170/// 17/09 Q1025

Time: 21:00 (20:00 UTC)

Forecast

The report was made 30 hours and 38 minutes ago, at 13:22 UTC
Forecast valid from 22 at 15 UTC to 22 at 24 UTC
Wind 10 kt from the North
Visibility 10 km or more
no clouds below 1500 m and no cumulonimbus

TAF: EGUW 221322Z 2215/2224 01010KT CAVOK

Weather observations and forecasts of more than 4000 airports (METAR and TAF reports).

The available stations are represented by yellow and red dots on the map.

Hover mouse over dot to see the name of the station.

Then click to see weather observations and forecasts.

To change the map : click on the green buttons with a black cross to zoom in, on the green button with a dash to zoom out, or on the green arrows for adjacent maps.


METAR-TAF: